sensor_id;sensor_type;location;lat;lon;timestamp;P1;durP1;ratioP1;P2;durP2;ratioP2
71947;SDS011;63257;55.082;38.772;2022-10-31T00:06:13;2.40;;;0.50;;
71947;SDS011;63257;55.082;38.772;2022-10-31T00:08:58;3.00;;;0.70;;
71947;SDS011;63257;55.082;38.772;2022-10-31T00:11:43;2.72;;;0.50;;
71947;SDS011;63257;55.082;38.772;2022-10-31T00:30:10;2.50;;;0.53;;
71947;SDS011;63257;55.082;38.772;2022-10-31T00:33:13;2.42;;;0.60;;
71947;SDS011;63257;55.082;38.772;2022-10-31T00:35:40;2.55;;;0.65;;
71947;SDS011;63257;55.082;38.772;2022-10-31T00:42:24;2.42;;;0.60;;
71947;SDS011;63257;55.082;38.772;2022-10-31T01:00:05;2.40;;;0.50;;
71947;SDS011;63257;55.082;38.772;2022-10-31T01:07:09;3.17;;;0.60;;
71947;SDS011;63257;55.082;38.772;2022-10-31T01:09:53;3.65;;;0.90;;
71947;SDS011;63257;55.082;38.772;2022-10-31T01:12:19;3.05;;;0.70;;
71947;SDS011;63257;55.082;38.772;2022-10-31T01:15:03;5.47;;;0.95;;
71947;SDS011;63257;55.082;38.772;2022-10-31T01:22:00;3.03;;;0.60;;
71947;SDS011;63257;55.082;38.772;2022-10-31T01:30:52;2.65;;;0.70;;
71947;SDS011;63257;55.082;38.772;2022-10-31T01:41:29;3.57;;;0.50;;
71947;SDS011;63257;55.082;38.772;2022-10-31T01:47:54;4.05;;;0.70;;
71947;SDS011;63257;55.082;38.772;2022-10-31T02:04:05;3.38;;;0.60;;
71947;SDS011;63257;55.082;38.772;2022-10-31T02:10:14;2.83;;;0.57;;
71947;SDS011;63257;55.082;38.772;2022-10-31T02:12:59;3.10;;;0.70;;
71947;SDS011;63257;55.082;38.772;2022-10-31T02:15:52;2.95;;;0.70;;
71947;SDS011;63257;55.082;38.772;2022-10-31T02:18:38;3.30;;;0.70;;
71947;SDS011;63257;55.082;38.772;2022-10-31T02:50:02;3.33;;;0.60;;
71947;SDS011;63257;55.082;38.772;2022-10-31T03:08:50;2.53;;;0.70;;
71947;SDS011;63257;55.082;38.772;2022-10-31T03:15:40;3.47;;;1.07;;
71947;SDS011;63257;55.082;38.772;2022-10-31T03:20:47;2.40;;;0.50;;
71947;SDS011;63257;55.082;38.772;2022-10-31T03:27:44;2.55;;;0.60;;
71947;SDS011;63257;55.082;38.772;2022-10-31T03:30:17;2.40;;;0.60;;
71947;SDS011;63257;55.082;38.772;2022-10-31T04:08:01;2.80;;;0.60;;
71947;SDS011;63257;55.082;38.772;2022-10-31T04:10:51;4.90;;;1.30;;
71947;SDS011;63257;55.082;38.772;2022-10-31T04:17:32;4.68;;;1.30;;
71947;SDS011;63257;55.082;38.772;2022-10-31T04:20:38;3.28;;;0.95;;
71947;SDS011;63257;55.082;38.772;2022-10-31T04:23:08;5.80;;;0.73;;
71947;SDS011;63257;55.082;38.772;2022-10-31T04:25:41;2.95;;;0.80;;
71947;SDS011;63257;55.082;38.772;2022-10-31T04:28:08;2.75;;;0.65;;
71947;SDS011;63257;55.082;38.772;2022-10-31T04:33:41;3.50;;;0.85;;
71947;SDS011;63257;55.082;38.772;2022-10-31T04:39:29;3.15;;;0.77;;
71947;SDS011;63257;55.082;38.772;2022-10-31T04:46:15;3.72;;;0.80;;
71947;SDS011;63257;55.082;38.772;2022-10-31T04:49:00;3.53;;;0.80;;
71947;SDS011;63257;55.082;38.772;2022-10-31T04:58:11;5.93;;;0.90;;
71947;SDS011;63257;55.082;38.772;2022-10-31T05:00:37;3.23;;;0.90;;
71947;SDS011;63257;55.082;38.772;2022-10-31T05:03:03;2.63;;;0.73;;
71947;SDS011;63257;55.082;38.772;2022-10-31T05:05:30;3.53;;;1.30;;
71947;SDS011;63257;55.082;38.772;2022-10-31T05:07:59;4.28;;;1.08;;
71947;SDS011;63257;55.082;38.772;2022-10-31T05:10:27;3.55;;;0.93;;
71947;SDS011;63257;55.082;38.772;2022-10-31T05:12:58;2.97;;;0.90;;
71947;SDS011;63257;55.082;38.772;2022-10-31T05:15:44;3.30;;;1.00;;
71947;SDS011;63257;55.082;38.772;2022-10-31T05:18:16;3.72;;;1.00;;
71947;SDS011;63257;55.082;38.772;2022-10-31T05:21:19;3.88;;;1.00;;
71947;SDS011;63257;55.082;38.772;2022-10-31T05:24:03;3.30;;;0.83;;
71947;SDS011;63257;55.082;38.772;2022-10-31T05:26:32;2.90;;;0.80;;
71947;SDS011;63257;55.082;38.772;2022-10-31T05:29:16;3.78;;;1.27;;
71947;SDS011;63257;55.082;38.772;2022-10-31T05:31:42;3.80;;;1.15;;
71947;SDS011;63257;55.082;38.772;2022-10-31T05:34:19;3.85;;;1.05;;
71947;SDS011;63257;55.082;38.772;2022-10-31T05:37:23;3.40;;;0.95;;
71947;SDS011;63257;55.082;38.772;2022-10-31T05:40:08;4.55;;;0.90;;
71947;SDS011;63257;55.082;38.772;2022-10-31T05:42:41;6.87;;;1.90;;
71947;SDS011;63257;55.082;38.772;2022-10-31T05:45:11;2.90;;;0.90;;
71947;SDS011;63257;55.082;38.772;2022-10-31T05:51:14;6.07;;;1.00;;
71947;SDS011;63257;55.082;38.772;2022-10-31T05:59:33;3.53;;;0.90;;
71947;SDS011;63257;55.082;38.772;2022-10-31T06:05:11;4.00;;;0.80;;
71947;SDS011;63257;55.082;38.772;2022-10-31T06:07:56;3.40;;;0.90;;
71947;SDS011;63257;55.082;38.772;2022-10-31T06:10:42;3.10;;;0.95;;
71947;SDS011;63257;55.082;38.772;2022-10-31T06:13:09;5.05;;;1.33;;
71947;SDS011;63257;55.082;38.772;2022-10-31T06:19:04;3.78;;;1.08;;
71947;SDS011;63257;55.082;38.772;2022-10-31T06:21:31;3.20;;;1.10;;
71947;SDS011;63257;55.082;38.772;2022-10-31T06:23:57;5.35;;;1.08;;
71947;SDS011;63257;55.082;38.772;2022-10-31T06:32:47;3.30;;;1.10;;
71947;SDS011;63257;55.082;38.772;2022-10-31T06:35:35;5.40;;;1.13;;
71947;SDS011;63257;55.082;38.772;2022-10-31T06:38:01;3.65;;;1.00;;
71947;SDS011;63257;55.082;38.772;2022-10-31T06:46:26;3.17;;;1.05;;
71947;SDS011;63257;55.082;38.772;2022-10-31T06:49:14;3.95;;;1.08;;
71947;SDS011;63257;55.082;38.772;2022-10-31T06:51:48;3.78;;;1.20;;
71947;SDS011;63257;55.082;38.772;2022-10-31T06:54:16;2.88;;;1.00;;
71947;SDS011;63257;55.082;38.772;2022-10-31T06:56:42;3.92;;;0.90;;
71947;SDS011;63257;55.082;38.772;2022-10-31T06:59:10;4.05;;;1.42;;
71947;SDS011;63257;55.082;38.772;2022-10-31T07:02:00;4.87;;;1.30;;
71947;SDS011;63257;55.082;38.772;2022-10-31T07:04:26;3.45;;;1.10;;
71947;SDS011;63257;55.082;38.772;2022-10-31T07:07:14;4.03;;;1.20;;
71947;SDS011;63257;55.082;38.772;2022-10-31T07:09:58;5.60;;;1.90;;
71947;SDS011;63257;55.082;38.772;2022-10-31T07:18:15;4.18;;;1.38;;
71947;SDS011;63257;55.082;38.772;2022-10-31T07:21:00;5.85;;;1.27;;
71947;SDS011;63257;55.082;38.772;2022-10-31T07:23:47;4.97;;;1.90;;
71947;SDS011;63257;55.082;38.772;2022-10-31T07:26:49;3.80;;;1.40;;
71947;SDS011;63257;55.082;38.772;2022-10-31T07:29:34;3.30;;;1.07;;
71947;SDS011;63257;55.082;38.772;2022-10-31T07:32:00;4.50;;;1.60;;
71947;SDS011;63257;55.082;38.772;2022-10-31T07:34:29;6.38;;;1.77;;
71947;SDS011;63257;55.082;38.772;2022-10-31T07:37:14;4.77;;;1.13;;
71947;SDS011;63257;55.082;38.772;2022-10-31T07:39:40;4.35;;;1.90;;
71947;SDS011;63257;55.082;38.772;2022-10-31T07:45:30;6.27;;;2.10;;
71947;SDS011;63257;55.082;38.772;2022-10-31T07:51:36;5.53;;;2.20;;
71947;SDS011;63257;55.082;38.772;2022-10-31T07:54:39;5.03;;;1.40;;
71947;SDS011;63257;55.082;38.772;2022-10-31T07:57:07;3.55;;;1.50;;
71947;SDS011;63257;55.082;38.772;2022-10-31T07:59:34;3.97;;;1.27;;
71947;SDS011;63257;55.082;38.772;2022-10-31T08:01:59;5.20;;;1.90;;
71947;SDS011;63257;55.082;38.772;2022-10-31T08:04:51;4.60;;;1.70;;
71947;SDS011;63257;55.082;38.772;2022-10-31T08:07:26;5.45;;;1.83;;
71947;SDS011;63257;55.082;38.772;2022-10-31T08:09:58;4.25;;;1.63;;
71947;SDS011;63257;55.082;38.772;2022-10-31T08:12:28;5.72;;;1.98;;
71947;SDS011;63257;55.082;38.772;2022-10-31T08:14:54;6.35;;;2.15;;
71947;SDS011;63257;55.082;38.772;2022-10-31T08:17:20;4.33;;;1.73;;
71947;SDS011;63257;55.082;38.772;2022-10-31T08:20:06;3.70;;;1.60;;
71947;SDS011;63257;55.082;38.772;2022-10-31T08:22:39;4.75;;;2.20;;
71947;SDS011;63257;55.082;38.772;2022-10-31T08:25:05;3.97;;;1.90;;
71947;SDS011;63257;55.082;38.772;2022-10-31T08:27:51;4.15;;;1.67;;
71947;SDS011;63257;55.082;38.772;2022-10-31T08:30:38;4.63;;;1.30;;
71947;SDS011;63257;55.082;38.772;2022-10-31T08:33:39;4.17;;;1.50;;
71947;SDS011;63257;55.082;38.772;2022-10-31T08:36:27;5.47;;;2.00;;
71947;SDS011;63257;55.082;38.772;2022-10-31T08:39:22;5.25;;;2.33;;
71947;SDS011;63257;55.082;38.772;2022-10-31T08:42:06;3.72;;;1.55;;
71947;SDS011;63257;55.082;38.772;2022-10-31T08:44:33;3.95;;;1.35;;
71947;SDS011;63257;55.082;38.772;2022-10-31T08:49:49;4.60;;;1.48;;
71947;SDS011;63257;55.082;38.772;2022-10-31T08:52:34;4.07;;;1.50;;
71947;SDS011;63257;55.082;38.772;2022-10-31T08:55:02;4.68;;;1.77;;
71947;SDS011;63257;55.082;38.772;2022-10-31T08:57:57;4.22;;;1.40;;
71947;SDS011;63257;55.082;38.772;2022-10-31T09:00:48;3.40;;;1.33;;
71947;SDS011;63257;55.082;38.772;2022-10-31T09:03:38;3.75;;;1.35;;
71947;SDS011;63257;55.082;38.772;2022-10-31T09:06:25;3.65;;;1.60;;
71947;SDS011;63257;55.082;38.772;2022-10-31T09:09:09;3.70;;;1.33;;
71947;SDS011;63257;55.082;38.772;2022-10-31T09:11:53;3.83;;;1.83;;
71947;SDS011;63257;55.082;38.772;2022-10-31T09:14:22;3.70;;;1.50;;
71947;SDS011;63257;55.082;38.772;2022-10-31T09:17:36;4.32;;;1.55;;
71947;SDS011;63257;55.082;38.772;2022-10-31T09:20:15;4.47;;;1.60;;
71947;SDS011;63257;55.082;38.772;2022-10-31T09:22:41;3.58;;;1.50;;
71947;SDS011;63257;55.082;38.772;2022-10-31T09:25:08;3.90;;;1.63;;
71947;SDS011;63257;55.082;38.772;2022-10-31T09:27:38;4.17;;;1.70;;
71947;SDS011;63257;55.082;38.772;2022-10-31T09:30:05;3.20;;;1.13;;
71947;SDS011;63257;55.082;38.772;2022-10-31T09:32:56;4.43;;;1.80;;
71947;SDS011;63257;55.082;38.772;2022-10-31T09:35:24;4.15;;;1.90;;
71947;SDS011;63257;55.082;38.772;2022-10-31T09:37:58;3.63;;;1.55;;
71947;SDS011;63257;55.082;38.772;2022-10-31T09:40:45;4.28;;;1.80;;
71947;SDS011;63257;55.082;38.772;2022-10-31T09:52:40;4.55;;;1.40;;
71947;SDS011;63257;55.082;38.772;2022-10-31T09:57:49;4.70;;;2.08;;
71947;SDS011;63257;55.082;38.772;2022-10-31T10:06:19;4.20;;;1.88;;
71947;SDS011;63257;55.082;38.772;2022-10-31T10:29:58;3.97;;;1.67;;
71947;SDS011;63257;55.082;38.772;2022-10-31T10:32:30;5.03;;;2.00;;
71947;SDS011;63257;55.082;38.772;2022-10-31T10:40:56;5.88;;;2.05;;
71947;SDS011;63257;55.082;38.772;2022-10-31T10:51:52;4.50;;;1.87;;
71947;SDS011;63257;55.082;38.772;2022-10-31T11:03:26;4.10;;;1.35;;
71947;SDS011;63257;55.082;38.772;2022-10-31T11:06:18;6.18;;;1.38;;
71947;SDS011;63257;55.082;38.772;2022-10-31T11:11:49;3.55;;;1.50;;
71947;SDS011;63257;55.082;38.772;2022-10-31T11:17:37;3.00;;;1.10;;
71947;SDS011;63257;55.082;38.772;2022-10-31T11:20:30;4.10;;;1.23;;
71947;SDS011;63257;55.082;38.772;2022-10-31T11:23:18;4.00;;;1.33;;
71947;SDS011;63257;55.082;38.772;2022-10-31T11:26:05;3.80;;;1.40;;
71947;SDS011;63257;55.082;38.772;2022-10-31T11:28:44;4.60;;;1.70;;
71947;SDS011;63257;55.082;38.772;2022-10-31T11:31:22;4.10;;;1.40;;
71947;SDS011;63257;55.082;38.772;2022-10-31T11:33:49;4.22;;;1.10;;
71947;SDS011;63257;55.082;38.772;2022-10-31T11:36:42;3.73;;;1.33;;
71947;SDS011;63257;55.082;38.772;2022-10-31T11:39:15;4.50;;;1.30;;
71947;SDS011;63257;55.082;38.772;2022-10-31T11:41:47;5.40;;;1.45;;
71947;SDS011;63257;55.082;38.772;2022-10-31T11:44:33;4.93;;;1.45;;
71947;SDS011;63257;55.082;38.772;2022-10-31T11:47:19;4.80;;;1.85;;
71947;SDS011;63257;55.082;38.772;2022-10-31T11:50:01;4.05;;;1.50;;
71947;SDS011;63257;55.082;38.772;2022-10-31T11:52:36;4.53;;;1.52;;
71947;SDS011;63257;55.082;38.772;2022-10-31T11:58:18;5.18;;;1.85;;
71947;SDS011;63257;55.082;38.772;2022-10-31T12:00:38;5.43;;;1.98;;
71947;SDS011;63257;55.082;38.772;2022-10-31T12:05:38;4.43;;;1.98;;
71947;SDS011;63257;55.082;38.772;2022-10-31T12:08:25;5.00;;;1.98;;
71947;SDS011;63257;55.082;38.772;2022-10-31T12:16:31;4.50;;;1.77;;
71947;SDS011;63257;55.082;38.772;2022-10-31T12:57:35;4.72;;;1.50;;
71947;SDS011;63257;55.082;38.772;2022-10-31T13:00:39;3.72;;;1.50;;
71947;SDS011;63257;55.082;38.772;2022-10-31T13:08:51;3.80;;;1.60;;
71947;SDS011;63257;55.082;38.772;2022-10-31T13:11:46;5.60;;;1.77;;
71947;SDS011;63257;55.082;38.772;2022-10-31T13:17:30;4.32;;;1.88;;
71947;SDS011;63257;55.082;38.772;2022-10-31T13:26:13;4.28;;;1.55;;
71947;SDS011;63257;55.082;38.772;2022-10-31T13:29:08;4.22;;;1.63;;
71947;SDS011;63257;55.082;38.772;2022-10-31T13:32:03;3.93;;;1.53;;
71947;SDS011;63257;55.082;38.772;2022-10-31T13:34:51;4.03;;;1.30;;
71947;SDS011;63257;55.082;38.772;2022-10-31T13:40:02;3.83;;;1.90;;
71947;SDS011;63257;55.082;38.772;2022-10-31T13:45:29;5.65;;;1.65;;
71947;SDS011;63257;55.082;38.772;2022-10-31T13:56:36;7.97;;;2.67;;
71947;SDS011;63257;55.082;38.772;2022-10-31T13:59:28;5.60;;;2.40;;
71947;SDS011;63257;55.082;38.772;2022-10-31T14:07:57;5.32;;;2.08;;
71947;SDS011;63257;55.082;38.772;2022-10-31T14:10:48;9.95;;;3.60;;
71947;SDS011;63257;55.082;38.772;2022-10-31T14:13:36;4.38;;;1.80;;
71947;SDS011;63257;55.082;38.772;2022-10-31T14:17:38;5.88;;;2.45;;
71947;SDS011;63257;55.082;38.772;2022-10-31T14:40:24;5.72;;;2.30;;
71947;SDS011;63257;55.082;38.772;2022-10-31T14:50:58;9.32;;;3.55;;
71947;SDS011;63257;55.082;38.772;2022-10-31T14:53:47;5.40;;;2.47;;
71947;SDS011;63257;55.082;38.772;2022-10-31T14:56:49;3.53;;;1.43;;
71947;SDS011;63257;55.082;38.772;2022-10-31T14:59:18;5.97;;;2.92;;
71947;SDS011;63257;55.082;38.772;2022-10-31T15:01:59;6.38;;;2.65;;
71947;SDS011;63257;55.082;38.772;2022-10-31T15:04:28;5.47;;;2.55;;
71947;SDS011;63257;55.082;38.772;2022-10-31T15:07:15;7.28;;;3.25;;
71947;SDS011;63257;55.082;38.772;2022-10-31T15:09:45;5.53;;;2.22;;
71947;SDS011;63257;55.082;38.772;2022-10-31T15:12:26;4.75;;;2.15;;
71947;SDS011;63257;55.082;38.772;2022-10-31T15:14:54;5.57;;;2.50;;
71947;SDS011;63257;55.082;38.772;2022-10-31T15:17:41;6.88;;;2.97;;
71947;SDS011;63257;55.082;38.772;2022-10-31T15:22:56;6.07;;;2.90;;
71947;SDS011;63257;55.082;38.772;2022-10-31T15:25:41;4.47;;;1.75;;
71947;SDS011;63257;55.082;38.772;2022-10-31T15:28:26;7.18;;;2.58;;
71947;SDS011;63257;55.082;38.772;2022-10-31T15:30:54;6.50;;;3.00;;
71947;SDS011;63257;55.082;38.772;2022-10-31T15:33:40;5.20;;;2.10;;
71947;SDS011;63257;55.082;38.772;2022-10-31T15:36:22;6.78;;;2.42;;
71947;SDS011;63257;55.082;38.772;2022-10-31T15:38:50;4.53;;;1.63;;
71947;SDS011;63257;55.082;38.772;2022-10-31T15:47:03;5.25;;;2.00;;
71947;SDS011;63257;55.082;38.772;2022-10-31T15:52:12;5.10;;;2.03;;
71947;SDS011;63257;55.082;38.772;2022-10-31T15:54:44;4.88;;;2.10;;
71947;SDS011;63257;55.082;38.772;2022-10-31T15:57:14;4.00;;;1.60;;
71947;SDS011;63257;55.082;38.772;2022-10-31T15:59:42;4.15;;;1.40;;
71947;SDS011;63257;55.082;38.772;2022-10-31T16:02:13;4.05;;;1.67;;
71947;SDS011;63257;55.082;38.772;2022-10-31T16:04:50;4.13;;;1.30;;
71947;SDS011;63257;55.082;38.772;2022-10-31T16:07:19;3.80;;;1.50;;
71947;SDS011;63257;55.082;38.772;2022-10-31T16:09:49;4.03;;;1.48;;
71947;SDS011;63257;55.082;38.772;2022-10-31T16:12:37;4.30;;;1.60;;
71947;SDS011;63257;55.082;38.772;2022-10-31T16:15:13;3.80;;;1.73;;
71947;SDS011;63257;55.082;38.772;2022-10-31T16:18:00;3.80;;;1.45;;
71947;SDS011;63257;55.082;38.772;2022-10-31T16:20:50;5.72;;;1.50;;
71947;SDS011;63257;55.082;38.772;2022-10-31T16:23:20;4.95;;;1.73;;
71947;SDS011;63257;55.082;38.772;2022-10-31T16:25:49;5.22;;;1.80;;
71947;SDS011;63257;55.082;38.772;2022-10-31T16:30:48;3.13;;;1.05;;
71947;SDS011;63257;55.082;38.772;2022-10-31T16:33:31;4.10;;;1.80;;
71947;SDS011;63257;55.082;38.772;2022-10-31T16:38:58;4.43;;;1.63;;
71947;SDS011;63257;55.082;38.772;2022-10-31T16:47:07;5.13;;;1.50;;
71947;SDS011;63257;55.082;38.772;2022-10-31T16:49:40;4.95;;;1.55;;
71947;SDS011;63257;55.082;38.772;2022-10-31T16:52:12;4.70;;;1.83;;
71947;SDS011;63257;55.082;38.772;2022-10-31T16:54:56;4.30;;;1.67;;
71947;SDS011;63257;55.082;38.772;2022-10-31T16:57:42;4.25;;;1.85;;
71947;SDS011;63257;55.082;38.772;2022-10-31T17:00:14;5.40;;;1.70;;
71947;SDS011;63257;55.082;38.772;2022-10-31T17:02:59;3.92;;;1.42;;
71947;SDS011;63257;55.082;38.772;2022-10-31T17:05:43;3.97;;;1.73;;
71947;SDS011;63257;55.082;38.772;2022-10-31T17:08:09;4.63;;;1.65;;
71947;SDS011;63257;55.082;38.772;2022-10-31T17:10:36;4.18;;;1.77;;
71947;SDS011;63257;55.082;38.772;2022-10-31T17:13:03;5.18;;;1.70;;
71947;SDS011;63257;55.082;38.772;2022-10-31T17:15:37;4.47;;;1.38;;
71947;SDS011;63257;55.082;38.772;2022-10-31T17:24:01;4.78;;;1.92;;
71947;SDS011;63257;55.082;38.772;2022-10-31T17:29:12;6.78;;;1.52;;
71947;SDS011;63257;55.082;38.772;2022-10-31T17:31:57;3.45;;;1.30;;
71947;SDS011;63257;55.082;38.772;2022-10-31T17:37:29;3.88;;;1.58;;
71947;SDS011;63257;55.082;38.772;2022-10-31T17:39:55;4.57;;;1.83;;
71947;SDS011;63257;55.082;38.772;2022-10-31T17:42:39;3.42;;;1.27;;
71947;SDS011;63257;55.082;38.772;2022-10-31T17:45:05;3.28;;;1.10;;
71947;SDS011;63257;55.082;38.772;2022-10-31T17:47:33;3.92;;;1.35;;
71947;SDS011;63257;55.082;38.772;2022-10-31T17:49:59;4.50;;;1.20;;
71947;SDS011;63257;55.082;38.772;2022-10-31T17:52:30;3.50;;;1.10;;
71947;SDS011;63257;55.082;38.772;2022-10-31T17:54:56;3.22;;;1.20;;
71947;SDS011;63257;55.082;38.772;2022-10-31T17:57:22;4.32;;;1.30;;
71947;SDS011;63257;55.082;38.772;2022-10-31T18:00:07;3.93;;;1.13;;
71947;SDS011;63257;55.082;38.772;2022-10-31T18:02:37;3.03;;;1.10;;
71947;SDS011;63257;55.082;38.772;2022-10-31T18:05:04;3.10;;;0.93;;
71947;SDS011;63257;55.082;38.772;2022-10-31T18:07:31;3.20;;;1.00;;
71947;SDS011;63257;55.082;38.772;2022-10-31T18:09:57;3.88;;;1.17;;
71947;SDS011;63257;55.082;38.772;2022-10-31T18:12:24;4.03;;;1.40;;
71947;SDS011;63257;55.082;38.772;2022-10-31T18:14:50;3.63;;;1.23;;
71947;SDS011;63257;55.082;38.772;2022-10-31T18:17:19;4.22;;;1.40;;
71947;SDS011;63257;55.082;38.772;2022-10-31T18:19:46;4.28;;;1.40;;
71947;SDS011;63257;55.082;38.772;2022-10-31T18:22:31;4.53;;;1.40;;
71947;SDS011;63257;55.082;38.772;2022-10-31T18:24:57;3.45;;;1.10;;
71947;SDS011;63257;55.082;38.772;2022-10-31T18:30:27;3.15;;;1.00;;
71947;SDS011;63257;55.082;38.772;2022-10-31T18:35:38;3.38;;;1.00;;
71947;SDS011;63257;55.082;38.772;2022-10-31T18:38:23;3.53;;;1.13;;
71947;SDS011;63257;55.082;38.772;2022-10-31T18:40:50;3.23;;;0.90;;
71947;SDS011;63257;55.082;38.772;2022-10-31T18:43:16;3.30;;;0.90;;
71947;SDS011;63257;55.082;38.772;2022-10-31T18:45:43;3.30;;;1.10;;
71947;SDS011;63257;55.082;38.772;2022-10-31T18:48:31;3.60;;;1.00;;
71947;SDS011;63257;55.082;38.772;2022-10-31T18:51:05;3.50;;;0.90;;
71947;SDS011;63257;55.082;38.772;2022-10-31T18:53:32;2.95;;;0.90;;
71947;SDS011;63257;55.082;38.772;2022-10-31T18:55:59;3.55;;;1.10;;
71947;SDS011;63257;55.082;38.772;2022-10-31T18:58:26;3.55;;;1.10;;
71947;SDS011;63257;55.082;38.772;2022-10-31T19:00:53;5.40;;;1.30;;
71947;SDS011;63257;55.082;38.772;2022-10-31T19:03:20;4.10;;;1.45;;
71947;SDS011;63257;55.082;38.772;2022-10-31T19:06:04;3.50;;;1.27;;
71947;SDS011;63257;55.082;38.772;2022-10-31T19:11:34;4.10;;;1.05;;
71947;SDS011;63257;55.082;38.772;2022-10-31T19:14:01;3.40;;;1.13;;
71947;SDS011;63257;55.082;38.772;2022-10-31T19:16:46;6.40;;;1.40;;
71947;SDS011;63257;55.082;38.772;2022-10-31T19:19:12;4.47;;;1.20;;
71947;SDS011;63257;55.082;38.772;2022-10-31T19:21:38;3.50;;;1.13;;
71947;SDS011;63257;55.082;38.772;2022-10-31T19:24:22;3.72;;;1.00;;
71947;SDS011;63257;55.082;38.772;2022-10-31T19:26:49;3.25;;;1.08;;
71947;SDS011;63257;55.082;38.772;2022-10-31T19:29:15;3.40;;;1.15;;
71947;SDS011;63257;55.082;38.772;2022-10-31T19:31:41;4.38;;;1.30;;
71947;SDS011;63257;55.082;38.772;2022-10-31T19:34:12;3.97;;;1.33;;
71947;SDS011;63257;55.082;38.772;2022-10-31T19:36:57;3.77;;;1.37;;
71947;SDS011;63257;55.082;38.772;2022-10-31T19:42:28;7.00;;;1.25;;
71947;SDS011;63257;55.082;38.772;2022-10-31T19:44:57;6.07;;;1.50;;
71947;SDS011;63257;55.082;38.772;2022-10-31T19:47:42;4.72;;;1.52;;
71947;SDS011;63257;55.082;38.772;2022-10-31T19:50:11;6.68;;;1.70;;
71947;SDS011;63257;55.082;38.772;2022-10-31T19:52:37;5.00;;;1.63;;
71947;SDS011;63257;55.082;38.772;2022-10-31T19:55:06;3.90;;;1.30;;
71947;SDS011;63257;55.082;38.772;2022-10-31T19:57:35;3.67;;;1.20;;
71947;SDS011;63257;55.082;38.772;2022-10-31T20:00:02;5.47;;;1.50;;
71947;SDS011;63257;55.082;38.772;2022-10-31T20:06:55;4.07;;;1.40;;
71947;SDS011;63257;55.082;38.772;2022-10-31T20:15:19;4.30;;;1.33;;
71947;SDS011;63257;55.082;38.772;2022-10-31T20:22:04;4.30;;;1.60;;
71947;SDS011;63257;55.082;38.772;2022-10-31T20:24:30;3.33;;;1.20;;
71947;SDS011;63257;55.082;38.772;2022-10-31T20:31:08;3.67;;;1.30;;
71947;SDS011;63257;55.082;38.772;2022-10-31T20:33:57;3.25;;;1.05;;
71947;SDS011;63257;55.082;38.772;2022-10-31T20:36:44;4.03;;;1.20;;
71947;SDS011;63257;55.082;38.772;2022-10-31T20:39:48;4.07;;;1.40;;
71947;SDS011;63257;55.082;38.772;2022-10-31T20:42:33;4.93;;;1.30;;
71947;SDS011;63257;55.082;38.772;2022-10-31T20:44:59;5.05;;;1.20;;
71947;SDS011;63257;55.082;38.772;2022-10-31T20:48:03;3.88;;;1.30;;
71947;SDS011;63257;55.082;38.772;2022-10-31T20:50:28;4.03;;;1.00;;
71947;SDS011;63257;55.082;38.772;2022-10-31T20:57:06;3.72;;;1.15;;
71947;SDS011;63257;55.082;38.772;2022-10-31T20:59:32;2.80;;;0.90;;
71947;SDS011;63257;55.082;38.772;2022-10-31T21:10:46;3.60;;;1.55;;
71947;SDS011;63257;55.082;38.772;2022-10-31T21:17:47;3.63;;;1.30;;
71947;SDS011;63257;55.082;38.772;2022-10-31T21:20:43;3.73;;;1.40;;
71947;SDS011;63257;55.082;38.772;2022-10-31T21:23:09;3.38;;;1.20;;
71947;SDS011;63257;55.082;38.772;2022-10-31T21:25:37;3.28;;;1.08;;
71947;SDS011;63257;55.082;38.772;2022-10-31T21:28:22;2.77;;;0.90;;
71947;SDS011;63257;55.082;38.772;2022-10-31T21:35:00;4.72;;;1.60;;
71947;SDS011;63257;55.082;38.772;2022-10-31T21:37:44;4.13;;;1.10;;
71947;SDS011;63257;55.082;38.772;2022-10-31T21:43:46;4.07;;;1.10;;
71947;SDS011;63257;55.082;38.772;2022-10-31T22:07:31;3.95;;;1.30;;
71947;SDS011;63257;55.082;38.772;2022-10-31T22:14:16;3.90;;;1.08;;
71947;SDS011;63257;55.082;38.772;2022-10-31T22:16:42;3.65;;;1.30;;
71947;SDS011;63257;55.082;38.772;2022-10-31T22:23:32;3.10;;;1.23;;
71947;SDS011;63257;55.082;38.772;2022-10-31T22:26:10;3.35;;;1.00;;
71947;SDS011;63257;55.082;38.772;2022-10-31T22:28:41;3.23;;;1.00;;
71947;SDS011;63257;55.082;38.772;2022-10-31T22:35:25;4.47;;;1.95;;
71947;SDS011;63257;55.082;38.772;2022-10-31T22:42:10;4.10;;;1.50;;
71947;SDS011;63257;55.082;38.772;2022-10-31T22:44:39;3.60;;;1.10;;
71947;SDS011;63257;55.082;38.772;2022-10-31T22:47:26;4.27;;;1.10;;
71947;SDS011;63257;55.082;38.772;2022-10-31T22:49:52;3.15;;;1.20;;
71947;SDS011;63257;55.082;38.772;2022-10-31T22:52:36;3.40;;;1.00;;
71947;SDS011;63257;55.082;38.772;2022-10-31T22:55:02;3.40;;;0.90;;
71947;SDS011;63257;55.082;38.772;2022-10-31T22:57:34;4.22;;;1.40;;
71947;SDS011;63257;55.082;38.772;2022-10-31T22:59:59;4.03;;;1.38;;
71947;SDS011;63257;55.082;38.772;2022-10-31T23:07:04;3.85;;;1.20;;
71947;SDS011;63257;55.082;38.772;2022-10-31T23:13:11;3.83;;;0.95;;
71947;SDS011;63257;55.082;38.772;2022-10-31T23:16:14;2.73;;;0.90;;
71947;SDS011;63257;55.082;38.772;2022-10-31T23:19:18;4.20;;;1.20;;
71947;SDS011;63257;55.082;38.772;2022-10-31T23:29:28;4.65;;;1.15;;
71947;SDS011;63257;55.082;38.772;2022-10-31T23:31:54;3.67;;;1.30;;
71947;SDS011;63257;55.082;38.772;2022-10-31T23:34:39;3.42;;;1.05;;
71947;SDS011;63257;55.082;38.772;2022-10-31T23:41:24;2.78;;;0.90;;
71947;SDS011;63257;55.082;38.772;2022-10-31T23:48:02;3.17;;;1.00;;
71947;SDS011;63257;55.082;38.772;2022-10-31T23:50:29;3.13;;;0.98;;
71947;SDS011;63257;55.082;38.772;2022-10-31T23:52:57;3.40;;;1.05;;
71947;SDS011;63257;55.082;38.772;2022-10-31T23:55:23;3.42;;;1.25;;
